sensor_id;sensor_type;location;lat;lon;timestamp;P1;durP1;ratioP1;P2;durP2;ratioP2
23280;SDS011;11809;56.390;-3.266;2023-04-20T00:00:06;1.58;;;1.45;;
23280;SDS011;11809;56.390;-3.266;2023-04-20T00:05:04;2.45;;;1.48;;
23280;SDS011;11809;56.390;-3.266;2023-04-20T00:07:35;1.80;;;1.40;;
23280;SDS011;11809;56.390;-3.266;2023-04-20T00:10:02;1.77;;;1.52;;
23280;SDS011;11809;56.390;-3.266;2023-04-20T00:12:29;2.85;;;1.52;;
23280;SDS011;11809;56.390;-3.266;2023-04-20T00:14:57;1.98;;;1.52;;
23280;SDS011;11809;56.390;-3.266;2023-04-20T00:17:24;2.05;;;1.40;;
23280;SDS011;11809;56.390;-3.266;2023-04-20T00:19:51;1.38;;;1.20;;
23280;SDS011;11809;56.390;-3.266;2023-04-20T00:22:18;2.53;;;1.88;;
23280;SDS011;11809;56.390;-3.266;2023-04-20T00:24:45;1.55;;;1.45;;
23280;SDS011;11809;56.390;-3.266;2023-04-20T00:27:12;2.30;;;1.60;;
23280;SDS011;11809;56.390;-3.266;2023-04-20T00:29:39;1.50;;;1.40;;
23280;SDS011;11809;56.390;-3.266;2023-04-20T00:32:06;1.60;;;1.50;;
23280;SDS011;11809;56.390;-3.266;2023-04-20T00:34:33;1.55;;;1.35;;
23280;SDS011;11809;56.390;-3.266;2023-04-20T00:37:00;1.75;;;1.38;;
23280;SDS011;11809;56.390;-3.266;2023-04-20T00:39:27;2.92;;;1.65;;
23280;SDS011;11809;56.390;-3.266;2023-04-20T00:41:54;1.45;;;1.35;;
23280;SDS011;11809;56.390;-3.266;2023-04-20T00:44:30;1.30;;;1.20;;
23280;SDS011;11809;56.390;-3.266;2023-04-20T00:46:58;1.33;;;1.23;;
23280;SDS011;11809;56.390;-3.266;2023-04-20T00:49:25;1.92;;;1.42;;
23280;SDS011;11809;56.390;-3.266;2023-04-20T00:51:58;1.85;;;1.45;;
23280;SDS011;11809;56.390;-3.266;2023-04-20T00:54:27;1.40;;;1.30;;
23280;SDS011;11809;56.390;-3.266;2023-04-20T00:56:55;1.50;;;1.40;;
23280;SDS011;11809;56.390;-3.266;2023-04-20T00:59:24;1.48;;;1.38;;
23280;SDS011;11809;56.390;-3.266;2023-04-20T01:01:51;1.45;;;1.30;;
23280;SDS011;11809;56.390;-3.266;2023-04-20T01:04:18;1.42;;;1.30;;
23280;SDS011;11809;56.390;-3.266;2023-04-20T01:06:46;1.60;;;1.38;;
23280;SDS011;11809;56.390;-3.266;2023-04-20T01:09:12;1.52;;;1.40;;
23280;SDS011;11809;56.390;-3.266;2023-04-20T01:11:40;1.40;;;1.30;;
23280;SDS011;11809;56.390;-3.266;2023-04-20T01:14:07;1.83;;;1.38;;
23280;SDS011;11809;56.390;-3.266;2023-04-20T01:16:34;1.60;;;1.50;;
23280;SDS011;11809;56.390;-3.266;2023-04-20T01:19:02;2.65;;;1.42;;
23280;SDS011;11809;56.390;-3.266;2023-04-20T01:21:29;4.45;;;1.38;;
23280;SDS011;11809;56.390;-3.266;2023-04-20T01:23:56;1.70;;;1.20;;
23280;SDS011;11809;56.390;-3.266;2023-04-20T01:26:23;1.98;;;1.40;;
23280;SDS011;11809;56.390;-3.266;2023-04-20T01:28:51;1.70;;;1.33;;
23280;SDS011;11809;56.390;-3.266;2023-04-20T01:31:18;1.60;;;1.48;;
23280;SDS011;11809;56.390;-3.266;2023-04-20T01:33:45;1.80;;;1.30;;
23280;SDS011;11809;56.390;-3.266;2023-04-20T01:36:12;1.23;;;1.13;;
23280;SDS011;11809;56.390;-3.266;2023-04-20T01:38:40;1.40;;;1.30;;
23280;SDS011;11809;56.390;-3.266;2023-04-20T01:41:07;2.05;;;1.50;;
23280;SDS011;11809;56.390;-3.266;2023-04-20T01:43:35;1.23;;;1.15;;
23280;SDS011;11809;56.390;-3.266;2023-04-20T01:46:03;2.90;;;1.55;;
23280;SDS011;11809;56.390;-3.266;2023-04-20T01:48:31;2.22;;;1.55;;
23280;SDS011;11809;56.390;-3.266;2023-04-20T01:50:58;1.70;;;1.60;;
23280;SDS011;11809;56.390;-3.266;2023-04-20T01:53:25;2.63;;;1.38;;
23280;SDS011;11809;56.390;-3.266;2023-04-20T01:55:52;1.52;;;1.42;;
23280;SDS011;11809;56.390;-3.266;2023-04-20T01:58:19;1.55;;;1.45;;
23280;SDS011;11809;56.390;-3.266;2023-04-20T02:00:46;1.45;;;1.35;;
23280;SDS011;11809;56.390;-3.266;2023-04-20T02:03:13;1.85;;;1.30;;
23280;SDS011;11809;56.390;-3.266;2023-04-20T02:05:40;1.52;;;1.33;;
23280;SDS011;11809;56.390;-3.266;2023-04-20T02:08:07;1.45;;;1.35;;
23280;SDS011;11809;56.390;-3.266;2023-04-20T02:10:34;1.77;;;1.40;;
23280;SDS011;11809;56.390;-3.266;2023-04-20T02:13:01;2.55;;;1.30;;
23280;SDS011;11809;56.390;-3.266;2023-04-20T02:15:28;1.73;;;1.48;;
23280;SDS011;11809;56.390;-3.266;2023-04-20T02:17:56;1.48;;;1.38;;
23280;SDS011;11809;56.390;-3.266;2023-04-20T02:20:23;1.70;;;1.55;;
23280;SDS011;11809;56.390;-3.266;2023-04-20T02:22:50;1.50;;;1.40;;
23280;SDS011;11809;56.390;-3.266;2023-04-20T02:25:17;1.73;;;1.48;;
23280;SDS011;11809;56.390;-3.266;2023-04-20T02:27:44;1.55;;;1.45;;
23280;SDS011;11809;56.390;-3.266;2023-04-20T02:30:11;1.65;;;1.55;;
23280;SDS011;11809;56.390;-3.266;2023-04-20T02:32:38;1.40;;;1.30;;
23280;SDS011;11809;56.390;-3.266;2023-04-20T02:35:06;2.83;;;1.42;;
23280;SDS011;11809;56.390;-3.266;2023-04-20T02:37:33;2.05;;;1.40;;
23280;SDS011;11809;56.390;-3.266;2023-04-20T02:40:00;1.65;;;1.30;;
23280;SDS011;11809;56.390;-3.266;2023-04-20T02:42:27;1.52;;;1.40;;
23280;SDS011;11809;56.390;-3.266;2023-04-20T02:44:54;2.25;;;1.50;;
23280;SDS011;11809;56.390;-3.266;2023-04-20T02:47:21;1.63;;;1.52;;
23280;SDS011;11809;56.390;-3.266;2023-04-20T02:49:48;3.00;;;1.50;;
23280;SDS011;11809;56.390;-3.266;2023-04-20T02:52:15;1.83;;;1.52;;
23280;SDS011;11809;56.390;-3.266;2023-04-20T02:54:43;3.78;;;1.48;;
23280;SDS011;11809;56.390;-3.266;2023-04-20T02:57:10;1.60;;;1.50;;
23280;SDS011;11809;56.390;-3.266;2023-04-20T02:59:37;1.63;;;1.52;;
23280;SDS011;11809;56.390;-3.266;2023-04-20T03:02:04;1.40;;;1.30;;
23280;SDS011;11809;56.390;-3.266;2023-04-20T03:04:31;1.60;;;1.50;;
23280;SDS011;11809;56.390;-3.266;2023-04-20T03:06:59;1.30;;;1.20;;
23280;SDS011;11809;56.390;-3.266;2023-04-20T03:09:26;2.22;;;1.40;;
23280;SDS011;11809;56.390;-3.266;2023-04-20T03:11:53;1.55;;;1.45;;
23280;SDS011;11809;56.390;-3.266;2023-04-20T03:14:20;1.73;;;1.63;;
23280;SDS011;11809;56.390;-3.266;2023-04-20T03:16:47;1.58;;;1.40;;
23280;SDS011;11809;56.390;-3.266;2023-04-20T03:19:14;1.63;;;1.52;;
23280;SDS011;11809;56.390;-3.266;2023-04-20T03:21:43;1.70;;;1.60;;
23280;SDS011;11809;56.390;-3.266;2023-04-20T03:24:10;1.42;;;1.33;;
23280;SDS011;11809;56.390;-3.266;2023-04-20T03:26:37;1.40;;;1.30;;
23280;SDS011;11809;56.390;-3.266;2023-04-20T03:29:04;1.55;;;1.45;;
23280;SDS011;11809;56.390;-3.266;2023-04-20T03:31:31;1.70;;;1.60;;
23280;SDS011;11809;56.390;-3.266;2023-04-20T03:33:58;1.50;;;1.40;;
23280;SDS011;11809;56.390;-3.266;2023-04-20T03:36:25;1.23;;;1.13;;
23280;SDS011;11809;56.390;-3.266;2023-04-20T03:38:53;1.70;;;1.60;;
23280;SDS011;11809;56.390;-3.266;2023-04-20T03:41:21;1.70;;;1.60;;
23280;SDS011;11809;56.390;-3.266;2023-04-20T03:43:47;1.52;;;1.42;;
23280;SDS011;11809;56.390;-3.266;2023-04-20T03:46:14;1.92;;;1.35;;
23280;SDS011;11809;56.390;-3.266;2023-04-20T03:48:41;1.80;;;1.70;;
23280;SDS011;11809;56.390;-3.266;2023-04-20T03:51:08;1.58;;;1.48;;
23280;SDS011;11809;56.390;-3.266;2023-04-20T03:53:35;1.50;;;1.40;;
23280;SDS011;11809;56.390;-3.266;2023-04-20T03:56:05;1.40;;;1.30;;
23280;SDS011;11809;56.390;-3.266;2023-04-20T03:58:33;1.67;;;1.58;;
23280;SDS011;11809;56.390;-3.266;2023-04-20T04:01:00;1.73;;;1.63;;
23280;SDS011;11809;56.390;-3.266;2023-04-20T04:03:33;1.50;;;1.40;;
23280;SDS011;11809;56.390;-3.266;2023-04-20T04:06:01;1.70;;;1.60;;
23280;SDS011;11809;56.390;-3.266;2023-04-20T04:08:29;1.40;;;1.30;;
23280;SDS011;11809;56.390;-3.266;2023-04-20T04:10:58;1.45;;;1.35;;
23280;SDS011;11809;56.390;-3.266;2023-04-20T04:13:26;1.95;;;1.60;;
23280;SDS011;11809;56.390;-3.266;2023-04-20T04:15:53;1.40;;;1.30;;
23280;SDS011;11809;56.390;-3.266;2023-04-20T04:18:20;1.58;;;1.48;;
23280;SDS011;11809;56.390;-3.266;2023-04-20T04:20:48;1.58;;;1.45;;
23280;SDS011;11809;56.390;-3.266;2023-04-20T04:23:15;1.40;;;1.30;;
23280;SDS011;11809;56.390;-3.266;2023-04-20T04:25:41;2.08;;;1.50;;
23280;SDS011;11809;56.390;-3.266;2023-04-20T04:28:08;1.80;;;1.70;;
23280;SDS011;11809;56.390;-3.266;2023-04-20T04:30:36;1.55;;;1.45;;
23280;SDS011;11809;56.390;-3.266;2023-04-20T04:33:03;1.60;;;1.48;;
23280;SDS011;11809;56.390;-3.266;2023-04-20T04:35:30;1.48;;;1.38;;
23280;SDS011;11809;56.390;-3.266;2023-04-20T04:37:59;1.60;;;1.40;;
23280;SDS011;11809;56.390;-3.266;2023-04-20T04:40:27;2.00;;;1.52;;
23280;SDS011;11809;56.390;-3.266;2023-04-20T04:42:54;1.48;;;1.38;;
23280;SDS011;11809;56.390;-3.266;2023-04-20T04:45:21;1.60;;;1.50;;
23280;SDS011;11809;56.390;-3.266;2023-04-20T04:47:52;1.73;;;1.42;;
23280;SDS011;11809;56.390;-3.266;2023-04-20T04:50:19;1.60;;;1.50;;
23280;SDS011;11809;56.390;-3.266;2023-04-20T04:52:47;1.52;;;1.42;;
23280;SDS011;11809;56.390;-3.266;2023-04-20T04:55:14;6.60;;;1.50;;
23280;SDS011;11809;56.390;-3.266;2023-04-20T04:57:41;6.68;;;1.85;;
23280;SDS011;11809;56.390;-3.266;2023-04-20T05:00:09;10.50;;;1.50;;
23280;SDS011;11809;56.390;-3.266;2023-04-20T05:02:38;7.53;;;1.70;;
23280;SDS011;11809;56.390;-3.266;2023-04-20T05:05:06;7.20;;;1.60;;
23280;SDS011;11809;56.390;-3.266;2023-04-20T05:07:35;4.82;;;1.58;;
23280;SDS011;11809;56.390;-3.266;2023-04-20T05:10:04;2.67;;;1.48;;
23280;SDS011;11809;56.390;-3.266;2023-04-20T05:12:32;4.95;;;1.75;;
23280;SDS011;11809;56.390;-3.266;2023-04-20T05:14:59;7.50;;;1.65;;
23280;SDS011;11809;56.390;-3.266;2023-04-20T05:17:26;4.18;;;1.60;;
23280;SDS011;11809;56.390;-3.266;2023-04-20T05:19:53;2.70;;;1.80;;
23280;SDS011;11809;56.390;-3.266;2023-04-20T05:22:20;32.17;;;3.08;;
23280;SDS011;11809;56.390;-3.266;2023-04-20T05:24:47;22.77;;;2.90;;
23280;SDS011;11809;56.390;-3.266;2023-04-20T05:27:14;4.35;;;2.03;;
23280;SDS011;11809;56.390;-3.266;2023-04-20T05:29:41;7.18;;;2.53;;
23280;SDS011;11809;56.390;-3.266;2023-04-20T05:32:08;18.83;;;2.55;;
23280;SDS011;11809;56.390;-3.266;2023-04-20T05:34:35;19.33;;;2.60;;
23280;SDS011;11809;56.390;-3.266;2023-04-20T05:37:03;21.13;;;2.58;;
23280;SDS011;11809;56.390;-3.266;2023-04-20T05:39:31;47.80;;;3.67;;
23280;SDS011;11809;56.390;-3.266;2023-04-20T05:41:58;15.15;;;2.47;;
23280;SDS011;11809;56.390;-3.266;2023-04-20T05:44:25;7.45;;;3.10;;
23280;SDS011;11809;56.390;-3.266;2023-04-20T05:46:52;10.07;;;3.22;;
23280;SDS011;11809;56.390;-3.266;2023-04-20T05:49:19;2.97;;;2.70;;
23280;SDS011;11809;56.390;-3.266;2023-04-20T05:51:46;59.97;;;6.32;;
23280;SDS011;11809;56.390;-3.266;2023-04-20T05:54:13;51.03;;;5.53;;
23280;SDS011;11809;56.390;-3.266;2023-04-20T05:56:40;22.88;;;3.65;;
23280;SDS011;11809;56.390;-3.266;2023-04-20T05:59:07;5.63;;;2.05;;
23280;SDS011;11809;56.390;-3.266;2023-04-20T06:01:34;6.03;;;2.05;;
23280;SDS011;11809;56.390;-3.266;2023-04-20T06:04:01;6.43;;;2.00;;
23280;SDS011;11809;56.390;-3.266;2023-04-20T06:06:28;8.40;;;1.77;;
23280;SDS011;11809;56.390;-3.266;2023-04-20T06:08:56;2.83;;;1.70;;
23280;SDS011;11809;56.390;-3.266;2023-04-20T06:11:23;1.70;;;1.60;;
23280;SDS011;11809;56.390;-3.266;2023-04-20T06:13:51;7.18;;;1.88;;
23280;SDS011;11809;56.390;-3.266;2023-04-20T06:16:17;5.50;;;1.50;;
23280;SDS011;11809;56.390;-3.266;2023-04-20T06:18:45;6.03;;;1.65;;
23280;SDS011;11809;56.390;-3.266;2023-04-20T06:21:12;5.55;;;1.50;;
23280;SDS011;11809;56.390;-3.266;2023-04-20T06:23:39;5.78;;;1.70;;
23280;SDS011;11809;56.390;-3.266;2023-04-20T06:26:06;4.95;;;1.60;;
23280;SDS011;11809;56.390;-3.266;2023-04-20T06:28:36;5.03;;;1.50;;
23280;SDS011;11809;56.390;-3.266;2023-04-20T06:31:03;7.88;;;1.50;;
23280;SDS011;11809;56.390;-3.266;2023-04-20T06:33:31;8.82;;;2.10;;
23280;SDS011;11809;56.390;-3.266;2023-04-20T06:35:58;6.55;;;1.60;;
23280;SDS011;11809;56.390;-3.266;2023-04-20T06:38:26;9.18;;;1.60;;
23280;SDS011;11809;56.390;-3.266;2023-04-20T06:40:53;15.52;;;2.03;;
23280;SDS011;11809;56.390;-3.266;2023-04-20T06:43:20;4.05;;;1.30;;
23280;SDS011;11809;56.390;-3.266;2023-04-20T06:45:47;5.50;;;1.50;;
23280;SDS011;11809;56.390;-3.266;2023-04-20T06:48:15;4.95;;;1.38;;
23280;SDS011;11809;56.390;-3.266;2023-04-20T06:50:56;3.53;;;1.58;;
23280;SDS011;11809;56.390;-3.266;2023-04-20T06:53:24;5.28;;;1.50;;
23280;SDS011;11809;56.390;-3.266;2023-04-20T06:55:55;4.90;;;1.42;;
23280;SDS011;11809;56.390;-3.266;2023-04-20T06:58:22;2.03;;;1.27;;
23280;SDS011;11809;56.390;-3.266;2023-04-20T07:00:49;5.95;;;1.30;;
23280;SDS011;11809;56.390;-3.266;2023-04-20T07:03:16;2.30;;;1.13;;
23280;SDS011;11809;56.390;-3.266;2023-04-20T07:05:45;5.97;;;1.20;;
23280;SDS011;11809;56.390;-3.266;2023-04-20T07:08:12;5.55;;;1.40;;
23280;SDS011;11809;56.390;-3.266;2023-04-20T07:10:41;2.35;;;1.20;;
23280;SDS011;11809;56.390;-3.266;2023-04-20T07:13:08;2.45;;;1.23;;
23280;SDS011;11809;56.390;-3.266;2023-04-20T07:15:36;1.77;;;1.15;;
23280;SDS011;11809;56.390;-3.266;2023-04-20T07:18:03;10.05;;;1.63;;
23280;SDS011;11809;56.390;-3.266;2023-04-20T07:20:31;40.00;;;2.83;;
23280;SDS011;11809;56.390;-3.266;2023-04-20T07:22:58;46.47;;;3.97;;
23280;SDS011;11809;56.390;-3.266;2023-04-20T07:25:25;15.65;;;3.75;;
23280;SDS011;11809;56.390;-3.266;2023-04-20T07:27:53;13.73;;;4.10;;
23280;SDS011;11809;56.390;-3.266;2023-04-20T07:30:20;16.25;;;4.25;;
23280;SDS011;11809;56.390;-3.266;2023-04-20T07:32:47;13.55;;;2.92;;
23280;SDS011;11809;56.390;-3.266;2023-04-20T07:35:15;21.58;;;3.75;;
23280;SDS011;11809;56.390;-3.266;2023-04-20T07:37:42;11.65;;;2.75;;
23280;SDS011;11809;56.390;-3.266;2023-04-20T07:40:09;24.70;;;3.38;;
23280;SDS011;11809;56.390;-3.266;2023-04-20T07:42:36;18.17;;;2.72;;
23280;SDS011;11809;56.390;-3.266;2023-04-20T07:45:04;17.92;;;3.42;;
23280;SDS011;11809;56.390;-3.266;2023-04-20T07:47:32;12.18;;;3.22;;
23280;SDS011;11809;56.390;-3.266;2023-04-20T07:50:01;20.20;;;3.33;;
23280;SDS011;11809;56.390;-3.266;2023-04-20T07:52:29;17.08;;;2.95;;
23280;SDS011;11809;56.390;-3.266;2023-04-20T07:54:56;22.20;;;2.90;;
23280;SDS011;11809;56.390;-3.266;2023-04-20T07:57:25;16.02;;;2.35;;
23280;SDS011;11809;56.390;-3.266;2023-04-20T07:59:52;15.02;;;2.47;;
23280;SDS011;11809;56.390;-3.266;2023-04-20T08:02:20;11.60;;;2.28;;
23280;SDS011;11809;56.390;-3.266;2023-04-20T08:04:47;4.35;;;1.90;;
23280;SDS011;11809;56.390;-3.266;2023-04-20T08:07:15;10.20;;;1.83;;
23280;SDS011;11809;56.390;-3.266;2023-04-20T08:09:43;9.15;;;1.88;;
23280;SDS011;11809;56.390;-3.266;2023-04-20T08:12:10;8.80;;;1.92;;
23280;SDS011;11809;56.390;-3.266;2023-04-20T08:14:37;6.57;;;1.75;;
23280;SDS011;11809;56.390;-3.266;2023-04-20T08:17:06;5.95;;;1.48;;
23280;SDS011;11809;56.390;-3.266;2023-04-20T08:19:33;9.73;;;1.77;;
23280;SDS011;11809;56.390;-3.266;2023-04-20T08:22:01;5.65;;;1.52;;
23280;SDS011;11809;56.390;-3.266;2023-04-20T08:24:28;2.20;;;1.70;;
23280;SDS011;11809;56.390;-3.266;2023-04-20T08:26:56;2.65;;;1.40;;
23280;SDS011;11809;56.390;-3.266;2023-04-20T08:29:24;6.22;;;1.73;;
23280;SDS011;11809;56.390;-3.266;2023-04-20T08:31:52;1.50;;;1.40;;
23280;SDS011;11809;56.390;-3.266;2023-04-20T08:34:19;17.33;;;2.40;;
23280;SDS011;11809;56.390;-3.266;2023-04-20T08:36:47;10.20;;;1.85;;
23280;SDS011;11809;56.390;-3.266;2023-04-20T08:39:17;4.47;;;1.90;;
23280;SDS011;11809;56.390;-3.266;2023-04-20T08:41:45;6.20;;;1.70;;
23280;SDS011;11809;56.390;-3.266;2023-04-20T08:44:13;16.60;;;2.15;;
23280;SDS011;11809;56.390;-3.266;2023-04-20T08:46:41;2.70;;;2.10;;
23280;SDS011;11809;56.390;-3.266;2023-04-20T08:49:14;3.85;;;2.08;;
23280;SDS011;11809;56.390;-3.266;2023-04-20T08:51:42;4.15;;;1.98;;
23280;SDS011;11809;56.390;-3.266;2023-04-20T08:54:10;4.75;;;1.90;;
23280;SDS011;11809;56.390;-3.266;2023-04-20T08:56:39;15.68;;;2.35;;
23280;SDS011;11809;56.390;-3.266;2023-04-20T08:59:08;4.40;;;1.95;;
23280;SDS011;11809;56.390;-3.266;2023-04-20T09:01:36;3.58;;;2.00;;
23280;SDS011;11809;56.390;-3.266;2023-04-20T09:04:18;15.98;;;2.35;;
23280;SDS011;11809;56.390;-3.266;2023-04-20T09:06:49;25.15;;;2.60;;
23280;SDS011;11809;56.390;-3.266;2023-04-20T09:09:18;14.20;;;1.98;;
23280;SDS011;11809;56.390;-3.266;2023-04-20T09:14:48;46.67;;;3.45;;
23280;SDS011;11809;56.390;-3.266;2023-04-20T09:17:15;20.15;;;2.28;;
23280;SDS011;11809;56.390;-3.266;2023-04-20T09:19:44;21.33;;;2.35;;
23280;SDS011;11809;56.390;-3.266;2023-04-20T09:22:12;22.15;;;2.20;;
23280;SDS011;11809;56.390;-3.266;2023-04-20T09:24:39;17.88;;;2.28;;
23280;SDS011;11809;56.390;-3.266;2023-04-20T09:27:16;9.73;;;2.00;;
23280;SDS011;11809;56.390;-3.266;2023-04-20T09:29:55;9.73;;;1.80;;
23280;SDS011;11809;56.390;-3.266;2023-04-20T09:32:26;10.07;;;1.85;;
23280;SDS011;11809;56.390;-3.266;2023-04-20T09:34:55;8.73;;;2.13;;
23280;SDS011;11809;56.390;-3.266;2023-04-20T09:37:22;4.22;;;1.70;;
23280;SDS011;11809;56.390;-3.266;2023-04-20T09:39:49;10.98;;;2.15;;
23280;SDS011;11809;56.390;-3.266;2023-04-20T09:42:17;12.27;;;1.55;;
23280;SDS011;11809;56.390;-3.266;2023-04-20T09:44:44;7.68;;;1.67;;
23280;SDS011;11809;56.390;-3.266;2023-04-20T09:47:14;8.60;;;1.80;;
23280;SDS011;11809;56.390;-3.266;2023-04-20T09:49:45;10.25;;;1.60;;
23280;SDS011;11809;56.390;-3.266;2023-04-20T09:52:16;19.90;;;1.52;;
23280;SDS011;11809;56.390;-3.266;2023-04-20T09:54:44;4.30;;;1.55;;
23280;SDS011;11809;56.390;-3.266;2023-04-20T09:57:12;4.30;;;1.30;;
23280;SDS011;11809;56.390;-3.266;2023-04-20T09:59:41;14.82;;;1.75;;
23280;SDS011;11809;56.390;-3.266;2023-04-20T10:02:09;17.70;;;1.55;;
23280;SDS011;11809;56.390;-3.266;2023-04-20T10:04:50;15.23;;;1.70;;
23280;SDS011;11809;56.390;-3.266;2023-04-20T10:07:25;8.82;;;1.73;;
23280;SDS011;11809;56.390;-3.266;2023-04-20T10:10:12;7.47;;;1.02;;
23280;SDS011;11809;56.390;-3.266;2023-04-20T10:15:21;4.78;;;1.05;;
23280;SDS011;11809;56.390;-3.266;2023-04-20T10:17:56;4.75;;;1.15;;
23280;SDS011;11809;56.390;-3.266;2023-04-20T10:20:24;6.57;;;1.20;;
23280;SDS011;11809;56.390;-3.266;2023-04-20T10:22:53;3.15;;;0.90;;
23280;SDS011;11809;56.390;-3.266;2023-04-20T10:25:32;4.97;;;0.85;;
23280;SDS011;11809;56.390;-3.266;2023-04-20T10:27:59;2.80;;;1.00;;
23280;SDS011;11809;56.390;-3.266;2023-04-20T10:30:31;1.48;;;0.80;;
23280;SDS011;11809;56.390;-3.266;2023-04-20T10:33:03;3.45;;;0.80;;
23280;SDS011;11809;56.390;-3.266;2023-04-20T10:35:47;1.58;;;0.95;;
23280;SDS011;11809;56.390;-3.266;2023-04-20T10:41:09;2.15;;;0.70;;
23280;SDS011;11809;56.390;-3.266;2023-04-20T10:43:38;1.65;;;0.68;;
23280;SDS011;11809;56.390;-3.266;2023-04-20T10:46:27;1.38;;;0.70;;
23280;SDS011;11809;56.390;-3.266;2023-04-20T10:48:57;1.48;;;0.70;;
23280;SDS011;11809;56.390;-3.266;2023-04-20T10:51:29;0.70;;;0.70;;
23280;SDS011;11809;56.390;-3.266;2023-04-20T10:53:59;1.30;;;0.63;;
23280;SDS011;11809;56.390;-3.266;2023-04-20T10:56:37;0.75;;;0.63;;
23280;SDS011;11809;56.390;-3.266;2023-04-20T10:59:21;0.65;;;0.63;;
23280;SDS011;11809;56.390;-3.266;2023-04-20T11:01:50;0.88;;;0.80;;
23280;SDS011;11809;56.390;-3.266;2023-04-20T11:04:27;1.48;;;0.90;;
23280;SDS011;11809;56.390;-3.266;2023-04-20T11:07:02;1.48;;;0.70;;
23280;SDS011;11809;56.390;-3.266;2023-04-20T11:09:31;3.33;;;0.88;;
23280;SDS011;11809;56.390;-3.266;2023-04-20T11:12:00;1.25;;;0.80;;
23280;SDS011;11809;56.390;-3.266;2023-04-20T11:14:52;1.33;;;0.70;;
23280;SDS011;11809;56.390;-3.266;2023-04-20T11:17:33;2.65;;;0.90;;
23280;SDS011;11809;56.390;-3.266;2023-04-20T11:20:11;2.38;;;1.00;;
23280;SDS011;11809;56.390;-3.266;2023-04-20T11:22:41;2.05;;;1.00;;
23280;SDS011;11809;56.390;-3.266;2023-04-20T11:25:10;1.65;;;1.10;;
23280;SDS011;11809;56.390;-3.266;2023-04-20T11:27:38;2.30;;;0.85;;
23280;SDS011;11809;56.390;-3.266;2023-04-20T11:30:08;1.15;;;1.05;;
23280;SDS011;11809;56.390;-3.266;2023-04-20T11:32:36;0.98;;;0.95;;
23280;SDS011;11809;56.390;-3.266;2023-04-20T11:35:05;5.50;;;1.00;;
23280;SDS011;11809;56.390;-3.266;2023-04-20T11:37:49;3.42;;;1.05;;
23280;SDS011;11809;56.390;-3.266;2023-04-20T11:40:17;3.42;;;1.27;;
23280;SDS011;11809;56.390;-3.266;2023-04-20T11:42:44;13.27;;;1.40;;
23280;SDS011;11809;56.390;-3.266;2023-04-20T11:45:11;5.57;;;1.35;;
23280;SDS011;11809;56.390;-3.266;2023-04-20T11:47:38;8.13;;;1.50;;
23280;SDS011;11809;56.390;-3.266;2023-04-20T11:50:06;5.88;;;2.10;;
23280;SDS011;11809;56.390;-3.266;2023-04-20T11:52:34;14.18;;;1.75;;
23280;SDS011;11809;56.390;-3.266;2023-04-20T11:55:01;18.30;;;4.10;;
23280;SDS011;11809;56.390;-3.266;2023-04-20T11:57:29;45.67;;;11.00;;
23280;SDS011;11809;56.390;-3.266;2023-04-20T11:59:57;53.13;;;16.95;;
23280;SDS011;11809;56.390;-3.266;2023-04-20T12:02:24;127.03;;;37.58;;
23280;SDS011;11809;56.390;-3.266;2023-04-20T12:04:51;83.95;;;21.20;;
23280;SDS011;11809;56.390;-3.266;2023-04-20T12:07:19;100.15;;;18.83;;
23280;SDS011;11809;56.390;-3.266;2023-04-20T12:09:48;59.75;;;18.30;;
23280;SDS011;11809;56.390;-3.266;2023-04-20T12:12:15;54.22;;;17.60;;
23280;SDS011;11809;56.390;-3.266;2023-04-20T12:14:42;66.82;;;19.50;;
23280;SDS011;11809;56.390;-3.266;2023-04-20T12:17:09;64.55;;;15.23;;
23280;SDS011;11809;56.390;-3.266;2023-04-20T12:19:36;92.03;;;14.00;;
23280;SDS011;11809;56.390;-3.266;2023-04-20T12:22:03;62.17;;;13.50;;
23280;SDS011;11809;56.390;-3.266;2023-04-20T12:24:30;45.38;;;12.63;;
23280;SDS011;11809;56.390;-3.266;2023-04-20T12:26:57;62.88;;;12.27;;
23280;SDS011;11809;56.390;-3.266;2023-04-20T12:29:25;47.78;;;11.32;;
23280;SDS011;11809;56.390;-3.266;2023-04-20T12:31:52;38.63;;;11.80;;
23280;SDS011;11809;56.390;-3.266;2023-04-20T12:34:19;59.20;;;11.02;;
23280;SDS011;11809;56.390;-3.266;2023-04-20T12:36:46;25.95;;;6.35;;
23280;SDS011;11809;56.390;-3.266;2023-04-20T12:39:14;52.55;;;6.35;;
23280;SDS011;11809;56.390;-3.266;2023-04-20T12:41:41;31.02;;;5.10;;
23280;SDS011;11809;56.390;-3.266;2023-04-20T12:44:08;14.38;;;3.85;;
23280;SDS011;11809;56.390;-3.266;2023-04-20T12:46:36;10.98;;;3.00;;
23280;SDS011;11809;56.390;-3.266;2023-04-20T12:49:03;9.50;;;2.85;;
23280;SDS011;11809;56.390;-3.266;2023-04-20T12:51:31;28.50;;;3.60;;
23280;SDS011;11809;56.390;-3.266;2023-04-20T12:53:58;18.92;;;2.20;;
23280;SDS011;11809;56.390;-3.266;2023-04-20T12:56:25;16.80;;;2.78;;
23280;SDS011;11809;56.390;-3.266;2023-04-20T12:58:52;15.02;;;2.55;;
23280;SDS011;11809;56.390;-3.266;2023-04-20T13:01:19;21.55;;;2.63;;
23280;SDS011;11809;56.390;-3.266;2023-04-20T13:03:48;34.00;;;2.85;;
23280;SDS011;11809;56.390;-3.266;2023-04-20T13:06:17;16.33;;;2.28;;
23280;SDS011;11809;56.390;-3.266;2023-04-20T13:08:44;35.78;;;2.88;;
23280;SDS011;11809;56.390;-3.266;2023-04-20T13:11:12;21.48;;;2.53;;
23280;SDS011;11809;56.390;-3.266;2023-04-20T13:13:41;15.35;;;2.30;;
23280;SDS011;11809;56.390;-3.266;2023-04-20T13:16:08;18.35;;;2.08;;
23280;SDS011;11809;56.390;-3.266;2023-04-20T13:18:35;13.13;;;2.60;;
23280;SDS011;11809;56.390;-3.266;2023-04-20T13:21:03;16.67;;;2.10;;
23280;SDS011;11809;56.390;-3.266;2023-04-20T13:23:30;24.77;;;2.67;;
23280;SDS011;11809;56.390;-3.266;2023-04-20T13:25:57;13.05;;;1.48;;
23280;SDS011;11809;56.390;-3.266;2023-04-20T13:28:27;16.13;;;2.05;;
23280;SDS011;11809;56.390;-3.266;2023-04-20T13:30:54;12.23;;;1.70;;
23280;SDS011;11809;56.390;-3.266;2023-04-20T13:33:23;12.00;;;1.63;;
23280;SDS011;11809;56.390;-3.266;2023-04-20T13:35:50;27.63;;;2.15;;
23280;SDS011;11809;56.390;-3.266;2023-04-20T13:38:17;4.60;;;1.83;;
23280;SDS011;11809;56.390;-3.266;2023-04-20T13:40:45;7.45;;;1.48;;
23280;SDS011;11809;56.390;-3.266;2023-04-20T13:43:12;36.53;;;2.80;;
23280;SDS011;11809;56.390;-3.266;2023-04-20T13:45:39;24.50;;;2.53;;
23280;SDS011;11809;56.390;-3.266;2023-04-20T13:48:07;5.70;;;1.38;;
23280;SDS011;11809;56.390;-3.266;2023-04-20T13:50:34;9.93;;;1.75;;
23280;SDS011;11809;56.390;-3.266;2023-04-20T13:53:02;10.18;;;1.42;;
23280;SDS011;11809;56.390;-3.266;2023-04-20T13:55:29;4.40;;;1.33;;
23280;SDS011;11809;56.390;-3.266;2023-04-20T13:57:57;7.93;;;1.33;;
23280;SDS011;11809;56.390;-3.266;2023-04-20T14:00:24;4.55;;;1.42;;
23280;SDS011;11809;56.390;-3.266;2023-04-20T14:02:52;2.65;;;1.30;;
23280;SDS011;11809;56.390;-3.266;2023-04-20T14:05:19;6.93;;;1.10;;
23280;SDS011;11809;56.390;-3.266;2023-04-20T14:07:47;4.78;;;1.10;;
23280;SDS011;11809;56.390;-3.266;2023-04-20T14:10:15;5.70;;;1.20;;
23280;SDS011;11809;56.390;-3.266;2023-04-20T14:12:43;12.25;;;1.58;;
23280;SDS011;11809;56.390;-3.266;2023-04-20T14:15:10;3.70;;;1.20;;
23280;SDS011;11809;56.390;-3.266;2023-04-20T14:17:39;10.07;;;1.63;;
23280;SDS011;11809;56.390;-3.266;2023-04-20T14:20:06;4.07;;;1.08;;
23280;SDS011;11809;56.390;-3.266;2023-04-20T14:22:35;7.40;;;1.02;;
23280;SDS011;11809;56.390;-3.266;2023-04-20T14:25:03;3.80;;;0.90;;
23280;SDS011;11809;56.390;-3.266;2023-04-20T14:27:31;1.52;;;0.90;;
23280;SDS011;11809;56.390;-3.266;2023-04-20T14:29:58;1.92;;;0.90;;
23280;SDS011;11809;56.390;-3.266;2023-04-20T14:32:26;1.25;;;0.77;;
23280;SDS011;11809;56.390;-3.266;2023-04-20T14:34:53;1.48;;;0.90;;
23280;SDS011;11809;56.390;-3.266;2023-04-20T14:37:20;1.67;;;0.80;;
23280;SDS011;11809;56.390;-3.266;2023-04-20T14:39:50;1.00;;;0.90;;
23280;SDS011;11809;56.390;-3.266;2023-04-20T14:42:17;4.80;;;0.90;;
23280;SDS011;11809;56.390;-3.266;2023-04-20T14:44:45;70.78;;;3.75;;
23280;SDS011;11809;56.390;-3.266;2023-04-20T14:47:14;19.58;;;1.65;;